sensor_id;sensor_type;location;lat;lon;timestamp;pressure;altitude;pressure_sealevel;temperature;humidity
61014;BME280;46899;47.542;19.082;2022-07-29T00:00:18;100426.66;;;22.08;59.65
61014;BME280;46899;47.542;19.082;2022-07-29T00:03:21;100430.06;;;21.99;60.22
61014;BME280;46899;47.542;19.082;2022-07-29T00:06:23;100432.09;;;22.06;59.81
61014;BME280;46899;47.542;19.082;2022-07-29T00:09:26;100428.38;;;21.98;60.52
61014;BME280;46899;47.542;19.082;2022-07-29T00:12:29;100426.09;;;21.93;60.12
61014;BME280;46899;47.542;19.082;2022-07-29T00:15:33;100427.19;;;21.91;60.37
61014;BME280;46899;47.542;19.082;2022-07-29T00:18:36;100425.12;;;21.83;60.87
61014;BME280;46899;47.542;19.082;2022-07-29T00:21:38;100426.22;;;21.80;60.75
61014;BME280;46899;47.542;19.082;2022-07-29T00:24:41;100427.56;;;21.75;61.07
61014;BME280;46899;47.542;19.082;2022-07-29T00:27:43;100425.97;;;21.72;60.93
61014;BME280;46899;47.542;19.082;2022-07-29T00:30:47;100426.97;;;21.71;61.01
61014;BME280;46899;47.542;19.082;2022-07-29T00:33:50;100421.91;;;21.68;60.96
61014;BME280;46899;47.542;19.082;2022-07-29T00:36:52;100429.72;;;21.70;60.37
61014;BME280;46899;47.542;19.082;2022-07-29T00:39:55;100426.13;;;21.71;60.62
61014;BME280;46899;47.542;19.082;2022-07-29T00:42:57;100433.69;;;21.75;60.20
61014;BME280;46899;47.542;19.082;2022-07-29T00:46:00;100438.16;;;21.86;60.31
61014;BME280;46899;47.542;19.082;2022-07-29T00:49:03;100429.59;;;21.83;60.26
61014;BME280;46899;47.542;19.082;2022-07-29T00:52:07;100428.97;;;21.79;60.44
61014;BME280;46899;47.542;19.082;2022-07-29T00:55:11;100420.44;;;21.75;60.22
61014;BME280;46899;47.542;19.082;2022-07-29T00:58:14;100423.34;;;21.72;60.53
61014;BME280;46899;47.542;19.082;2022-07-29T01:01:17;100427.19;;;21.68;60.64
61014;BME280;46899;47.542;19.082;2022-07-29T01:04:20;100421.66;;;21.71;60.73
61014;BME280;46899;47.542;19.082;2022-07-29T01:07:23;100429.34;;;21.74;60.54
61014;BME280;46899;47.542;19.082;2022-07-29T01:10:26;100415.38;;;21.72;60.70
61014;BME280;46899;47.542;19.082;2022-07-29T01:13:29;100421.66;;;21.71;60.74
61014;BME280;46899;47.542;19.082;2022-07-29T01:16:32;100414.19;;;21.88;60.60
61014;BME280;46899;47.542;19.082;2022-07-29T01:19:59;100414.31;;;21.75;61.27
61014;BME280;46899;47.542;19.082;2022-07-29T01:32:39;100417.31;;;21.48;62.78
61014;BME280;46899;47.542;19.082;2022-07-29T01:35:42;100413.25;;;21.44;62.63
61014;BME280;46899;47.542;19.082;2022-07-29T01:38:53;100408.19;;;21.41;63.13
61014;BME280;46899;47.542;19.082;2022-07-29T01:42:02;100418.56;;;21.33;63.83
61014;BME280;46899;47.542;19.082;2022-07-29T01:45:26;100410.97;;;21.29;64.00
61014;BME280;46899;47.542;19.082;2022-07-29T01:48:31;100412.28;;;21.23;64.41
61014;BME280;46899;47.542;19.082;2022-07-29T01:51:45;100422.88;;;21.23;64.68
61014;BME280;46899;47.542;19.082;2022-07-29T01:54:51;100418.78;;;21.19;65.08
61014;BME280;46899;47.542;19.082;2022-07-29T01:57:54;100408.44;;;21.16;65.55
61014;BME280;46899;47.542;19.082;2022-07-29T02:00:59;100409.38;;;21.15;65.93
61014;BME280;46899;47.542;19.082;2022-07-29T02:04:02;100408.06;;;21.09;65.72
61014;BME280;46899;47.542;19.082;2022-07-29T02:07:06;100411.78;;;21.07;65.88
61014;BME280;46899;47.542;19.082;2022-07-29T02:10:09;100408.44;;;21.05;66.65
61014;BME280;46899;47.542;19.082;2022-07-29T02:13:12;100408.84;;;20.99;66.59
61014;BME280;46899;47.542;19.082;2022-07-29T02:16:15;100411.75;;;20.96;66.52
61014;BME280;46899;47.542;19.082;2022-07-29T02:19:21;100410.28;;;20.92;67.09
61014;BME280;46899;47.542;19.082;2022-07-29T02:22:24;100411.25;;;20.91;67.34
61014;BME280;46899;47.542;19.082;2022-07-29T02:25:28;100411.13;;;20.92;67.26
61014;BME280;46899;47.542;19.082;2022-07-29T02:28:39;100403.31;;;20.91;67.32
61014;BME280;46899;47.542;19.082;2022-07-29T02:31:42;100410.53;;;20.89;67.59
61014;BME280;46899;47.542;19.082;2022-07-29T02:34:46;100402.09;;;20.84;67.68
61014;BME280;46899;47.542;19.082;2022-07-29T02:37:49;100404.03;;;20.82;67.58
61014;BME280;46899;47.542;19.082;2022-07-29T02:41:15;100404.84;;;20.82;67.53
61014;BME280;46899;47.542;19.082;2022-07-29T02:44:20;100399.81;;;20.79;68.24
61014;BME280;46899;47.542;19.082;2022-07-29T02:47:34;100401.25;;;20.72;68.67
61014;BME280;46899;47.542;19.082;2022-07-29T02:50:50;100403.47;;;20.66;68.85
61014;BME280;46899;47.542;19.082;2022-07-29T02:53:54;100401.31;;;20.60;69.03
61014;BME280;46899;47.542;19.082;2022-07-29T02:56:59;100393.97;;;20.52;69.41
61014;BME280;46899;47.542;19.082;2022-07-29T03:00:06;100408.50;;;20.47;69.63
61014;BME280;46899;47.542;19.082;2022-07-29T03:03:14;100397.41;;;20.41;69.92
61014;BME280;46899;47.542;19.082;2022-07-29T03:06:17;100396.44;;;20.42;69.64
61014;BME280;46899;47.542;19.082;2022-07-29T03:09:40;100399.44;;;20.38;69.94
61014;BME280;46899;47.542;19.082;2022-07-29T03:12:44;100406.41;;;20.39;69.83
61014;BME280;46899;47.542;19.082;2022-07-29T03:15:46;100399.66;;;20.35;70.01
61014;BME280;46899;47.542;19.082;2022-07-29T03:18:49;100400.63;;;20.34;69.68
61014;BME280;46899;47.542;19.082;2022-07-29T03:21:52;100403.16;;;20.35;69.60
61014;BME280;46899;47.542;19.082;2022-07-29T03:24:58;100405.91;;;20.34;69.99
61014;BME280;46899;47.542;19.082;2022-07-29T03:28:09;100405.91;;;20.34;69.97
61014;BME280;46899;47.542;19.082;2022-07-29T03:31:11;100408.56;;;20.34;70.19
61014;BME280;46899;47.542;19.082;2022-07-29T03:34:14;100414.69;;;20.34;69.96
61014;BME280;46899;47.542;19.082;2022-07-29T03:37:17;100407.59;;;20.35;69.96
61014;BME280;46899;47.542;19.082;2022-07-29T03:40:21;100410.97;;;20.37;69.81
61014;BME280;46899;47.542;19.082;2022-07-29T03:43:24;100409.16;;;20.37;69.80
61014;BME280;46899;47.542;19.082;2022-07-29T03:46:31;100404.16;;;20.45;69.89
61014;BME280;46899;47.542;19.082;2022-07-29T03:49:35;100405.72;;;20.48;70.10
61014;BME280;46899;47.542;19.082;2022-07-29T03:52:38;100404.75;;;20.49;70.20
61014;BME280;46899;47.542;19.082;2022-07-29T03:55:41;100405.38;;;20.53;70.16
61014;BME280;46899;47.542;19.082;2022-07-29T03:58:44;100417.41;;;20.57;69.89
61014;BME280;46899;47.542;19.082;2022-07-29T04:01:48;100417.06;;;20.61;69.70
61014;BME280;46899;47.542;19.082;2022-07-29T04:04:51;100422.97;;;20.65;69.23
61014;BME280;46899;47.542;19.082;2022-07-29T04:07:54;100418.41;;;20.67;69.47
61014;BME280;46899;47.542;19.082;2022-07-29T04:10:59;100422.84;;;20.66;69.85
61014;BME280;46899;47.542;19.082;2022-07-29T04:14:02;100420.34;;;20.76;69.91
61014;BME280;46899;47.542;19.082;2022-07-29T04:17:04;100423.72;;;20.78;70.06
61014;BME280;46899;47.542;19.082;2022-07-29T04:20:07;100431.22;;;20.84;69.81
61014;BME280;46899;47.542;19.082;2022-07-29T04:23:09;100427.00;;;20.92;69.15
61014;BME280;46899;47.542;19.082;2022-07-29T04:26:12;100425.75;;;21.09;68.59
61014;BME280;46899;47.542;19.082;2022-07-29T04:29:14;100423.47;;;21.04;69.40
61014;BME280;46899;47.542;19.082;2022-07-29T04:32:17;100427.81;;;21.05;69.62
61014;BME280;46899;47.542;19.082;2022-07-29T04:35:19;100429.25;;;21.09;69.46
61014;BME280;46899;47.542;19.082;2022-07-29T04:38:22;100429.38;;;21.19;69.28
61014;BME280;46899;47.542;19.082;2022-07-29T04:41:24;100429.38;;;21.30;68.21
61014;BME280;46899;47.542;19.082;2022-07-29T04:44:34;100419.75;;;21.51;66.35
61014;BME280;46899;47.542;19.082;2022-07-29T04:47:41;100418.53;;;21.66;65.70
61014;BME280;46899;47.542;19.082;2022-07-29T04:50:43;100419.22;;;21.79;64.46
61014;BME280;46899;47.542;19.082;2022-07-29T04:53:46;100423.72;;;21.90;64.15
61014;BME280;46899;47.542;19.082;2022-07-29T04:56:48;100428.13;;;22.01;64.26
61014;BME280;46899;47.542;19.082;2022-07-29T04:59:51;100430.75;;;22.12;63.64
61014;BME280;46899;47.542;19.082;2022-07-29T05:02:53;100429.50;;;22.27;63.06
61014;BME280;46899;47.542;19.082;2022-07-29T05:05:56;100434.75;;;22.49;62.37
61014;BME280;46899;47.542;19.082;2022-07-29T05:08:58;100428.25;;;22.74;61.51
61014;BME280;46899;47.542;19.082;2022-07-29T05:12:01;100425.62;;;23.25;59.59
61014;BME280;46899;47.542;19.082;2022-07-29T05:15:03;100432.66;;;23.65;57.61
61014;BME280;46899;47.542;19.082;2022-07-29T05:18:06;100432.88;;;23.83;57.16
61014;BME280;46899;47.542;19.082;2022-07-29T05:21:09;100436.38;;;23.93;56.38
61014;BME280;46899;47.542;19.082;2022-07-29T05:24:11;100426.84;;;23.91;55.92
61014;BME280;46899;47.542;19.082;2022-07-29T05:27:14;100426.63;;;24.03;56.17
61014;BME280;46899;47.542;19.082;2022-07-29T05:30:17;100430.25;;;24.02;55.69
61014;BME280;46899;47.542;19.082;2022-07-29T05:33:19;100433.63;;;24.04;55.56
61014;BME280;46899;47.542;19.082;2022-07-29T05:36:38;100428.16;;;24.06;55.67
61014;BME280;46899;47.542;19.082;2022-07-29T05:39:40;100425.56;;;24.25;55.09
61014;BME280;46899;47.542;19.082;2022-07-29T05:42:50;100432.53;;;25.02;52.58
61014;BME280;46899;47.542;19.082;2022-07-29T05:45:53;100433.56;;;26.02;49.87
61014;BME280;46899;47.542;19.082;2022-07-29T05:48:55;100433.34;;;26.31;48.70
61014;BME280;46899;47.542;19.082;2022-07-29T05:51:58;100434.03;;;26.15;48.75
61014;BME280;46899;47.542;19.082;2022-07-29T05:55:00;100436.50;;;26.44;47.81
61014;BME280;46899;47.542;19.082;2022-07-29T05:58:06;100428.94;;;27.86;44.19
61014;BME280;46899;47.542;19.082;2022-07-29T06:01:09;100427.97;;;28.69;41.99
61014;BME280;46899;47.542;19.082;2022-07-29T06:04:11;100438.75;;;27.77;43.54
61014;BME280;46899;47.542;19.082;2022-07-29T06:07:14;100440.41;;;27.36;44.86
61014;BME280;46899;47.542;19.082;2022-07-29T06:10:18;100440.53;;;27.35;44.35
61014;BME280;46899;47.542;19.082;2022-07-29T06:13:24;100437.97;;;26.99;45.38
61014;BME280;46899;47.542;19.082;2022-07-29T06:16:27;100437.09;;;26.73;45.30
61014;BME280;46899;47.542;19.082;2022-07-29T06:19:33;100440.47;;;26.58;46.48
61014;BME280;46899;47.542;19.082;2022-07-29T06:22:36;100448.31;;;26.41;46.58
61014;BME280;46899;47.542;19.082;2022-07-29T06:25:39;100439.88;;;26.28;46.89
61014;BME280;46899;47.542;19.082;2022-07-29T06:28:42;100444.50;;;26.26;47.17
61014;BME280;46899;47.542;19.082;2022-07-29T06:31:44;100443.06;;;26.32;47.09
61014;BME280;46899;47.542;19.082;2022-07-29T06:34:47;100447.47;;;26.41;47.27
61014;BME280;46899;47.542;19.082;2022-07-29T06:37:50;100440.37;;;26.67;46.00
61014;BME280;46899;47.542;19.082;2022-07-29T06:40:56;100449.12;;;26.95;46.29
61014;BME280;46899;47.542;19.082;2022-07-29T06:44:02;100455.75;;;27.08;45.71
61014;BME280;46899;47.542;19.082;2022-07-29T06:47:05;100458.25;;;27.36;44.80
61014;BME280;46899;47.542;19.082;2022-07-29T06:50:08;100451.38;;;27.51;43.38
61014;BME280;46899;47.542;19.082;2022-07-29T06:53:14;100456.78;;;27.67;42.92
61014;BME280;46899;47.542;19.082;2022-07-29T06:56:16;100457.66;;;28.09;42.29
61014;BME280;46899;47.542;19.082;2022-07-29T06:59:19;100456.91;;;28.81;41.30
61014;BME280;46899;47.542;19.082;2022-07-29T07:02:31;100459.91;;;29.90;38.03
61014;BME280;46899;47.542;19.082;2022-07-29T07:05:34;100442.22;;;34.32;30.66
61014;BME280;46899;47.542;19.082;2022-07-29T07:08:36;100450.31;;;37.33;26.25
61014;BME280;46899;47.542;19.082;2022-07-29T07:11:39;100444.25;;;39.90;21.93
61014;BME280;46899;47.542;19.082;2022-07-29T07:14:42;100449.78;;;40.97;20.99
61014;BME280;46899;47.542;19.082;2022-07-29T07:17:44;100456.31;;;39.43;22.00
61014;BME280;46899;47.542;19.082;2022-07-29T07:20:47;100451.50;;;40.69;20.25
61014;BME280;46899;47.542;19.082;2022-07-29T07:23:50;100448.34;;;42.09;19.13
61014;BME280;46899;47.542;19.082;2022-07-29T07:26:52;100446.44;;;43.88;17.43
61014;BME280;46899;47.542;19.082;2022-07-29T07:29:55;100442.19;;;44.73;16.64
61014;BME280;46899;47.542;19.082;2022-07-29T07:32:57;100435.03;;;44.62;16.43
61014;BME280;46899;47.542;19.082;2022-07-29T07:35:59;100432.78;;;45.14;16.45
61014;BME280;46899;47.542;19.082;2022-07-29T07:39:02;100431.69;;;45.99;15.78
61014;BME280;46899;47.542;19.082;2022-07-29T07:42:05;100443.53;;;46.44;15.43
61014;BME280;46899;47.542;19.082;2022-07-29T07:45:08;100442.53;;;45.76;15.74
61014;BME280;46899;47.542;19.082;2022-07-29T07:48:18;100446.53;;;44.34;16.80
61014;BME280;46899;47.542;19.082;2022-07-29T07:51:20;100436.13;;;44.76;16.51
61014;BME280;46899;47.542;19.082;2022-07-29T07:54:23;100439.59;;;46.84;14.86
61014;BME280;46899;47.542;19.082;2022-07-29T07:57:25;100428.75;;;47.68;13.92
61014;BME280;46899;47.542;19.082;2022-07-29T08:00:28;100429.59;;;47.45;14.36
61014;BME280;46899;47.542;19.082;2022-07-29T08:03:30;100428.81;;;47.39;14.08
61014;BME280;46899;47.542;19.082;2022-07-29T08:06:33;100428.16;;;47.71;13.87
61014;BME280;46899;47.542;19.082;2022-07-29T08:09:37;100423.66;;;49.14;12.78
61014;BME280;46899;47.542;19.082;2022-07-29T08:12:39;100418.84;;;49.06;12.68
61014;BME280;46899;47.542;19.082;2022-07-29T08:15:42;100420.84;;;48.55;13.45
61014;BME280;46899;47.542;19.082;2022-07-29T08:18:45;100422.63;;;49.10;12.45
61014;BME280;46899;47.542;19.082;2022-07-29T08:21:48;100429.22;;;49.28;12.77
61014;BME280;46899;47.542;19.082;2022-07-29T08:24:51;100420.78;;;48.60;12.99
61014;BME280;46899;47.542;19.082;2022-07-29T08:27:58;100416.87;;;48.29;13.27
61014;BME280;46899;47.542;19.082;2022-07-29T08:31:00;100412.50;;;49.06;12.85
61014;BME280;46899;47.542;19.082;2022-07-29T08:34:03;100409.78;;;47.43;13.70
61014;BME280;46899;47.542;19.082;2022-07-29T08:37:06;100409.00;;;48.54;13.15
61014;BME280;46899;47.542;19.082;2022-07-29T08:40:09;100410.88;;;47.84;13.41
61014;BME280;46899;47.542;19.082;2022-07-29T08:43:11;100419.16;;;48.40;12.85
61014;BME280;46899;47.542;19.082;2022-07-29T08:46:15;100409.91;;;48.50;13.00
61014;BME280;46899;47.542;19.082;2022-07-29T08:49:19;100410.13;;;48.35;12.96
61014;BME280;46899;47.542;19.082;2022-07-29T08:52:23;100398.69;;;47.48;13.84
61014;BME280;46899;47.542;19.082;2022-07-29T08:55:27;100400.56;;;47.71;13.69
61014;BME280;46899;47.542;19.082;2022-07-29T08:58:31;100396.84;;;48.37;12.92
61014;BME280;46899;47.542;19.082;2022-07-29T09:01:39;100400.72;;;48.36;12.71
61014;BME280;46899;47.542;19.082;2022-07-29T09:04:46;100400.28;;;49.61;11.87
61014;BME280;46899;47.542;19.082;2022-07-29T09:07:49;100393.13;;;48.28;12.59
61014;BME280;46899;47.542;19.082;2022-07-29T09:10:52;100392.78;;;47.31;13.40
61014;BME280;46899;47.542;19.082;2022-07-29T09:13:55;100379.41;;;47.85;13.01
61014;BME280;46899;47.542;19.082;2022-07-29T09:16:58;100391.19;;;49.06;12.47
61014;BME280;46899;47.542;19.082;2022-07-29T09:20:08;100381.09;;;46.92;13.92
61014;BME280;46899;47.542;19.082;2022-07-29T09:23:11;100382.06;;;47.06;13.75
61014;BME280;46899;47.542;19.082;2022-07-29T09:26:27;100379.19;;;45.17;15.03
61014;BME280;46899;47.542;19.082;2022-07-29T09:29:30;100376.72;;;41.90;18.49
61014;BME280;46899;47.542;19.082;2022-07-29T09:35:59;100364.09;;;37.83;22.50
61014;BME280;46899;47.542;19.082;2022-07-29T09:39:03;100354.81;;;37.36;23.06
61014;BME280;46899;47.542;19.082;2022-07-29T09:42:06;100352.44;;;36.85;24.07
61014;BME280;46899;47.542;19.082;2022-07-29T09:45:08;100350.62;;;36.79;23.77
61014;BME280;46899;47.542;19.082;2022-07-29T09:48:13;100339.88;;;36.66;23.81
61014;BME280;46899;47.542;19.082;2022-07-29T09:51:19;100339.97;;;36.03;24.63
61014;BME280;46899;47.542;19.082;2022-07-29T09:54:29;100339.72;;;36.61;24.28
61014;BME280;46899;47.542;19.082;2022-07-29T09:57:36;100331.47;;;36.24;24.51
61014;BME280;46899;47.542;19.082;2022-07-29T10:00:41;100329.06;;;36.34;24.44
61014;BME280;46899;47.542;19.082;2022-07-29T10:03:51;100328.41;;;36.46;23.86
61014;BME280;46899;47.542;19.082;2022-07-29T10:06:58;100324.97;;;36.25;23.97
61014;BME280;46899;47.542;19.082;2022-07-29T10:10:06;100319.91;;;36.04;24.15
61014;BME280;46899;47.542;19.082;2022-07-29T10:13:13;100324.25;;;36.12;24.06
61014;BME280;46899;47.542;19.082;2022-07-29T10:16:17;100323.59;;;36.66;23.43
61014;BME280;46899;47.542;19.082;2022-07-29T10:19:20;100318.50;;;36.76;22.93
61014;BME280;46899;47.542;19.082;2022-07-29T10:22:23;100318.94;;;36.73;23.19
61014;BME280;46899;47.542;19.082;2022-07-29T10:25:45;100316.50;;;37.08;23.25
61014;BME280;46899;47.542;19.082;2022-07-29T10:28:48;100313.28;;;36.99;22.70
61014;BME280;46899;47.542;19.082;2022-07-29T10:35:15;100305.37;;;36.97;22.92
61014;BME280;46899;47.542;19.082;2022-07-29T10:44:55;100300.88;;;36.85;22.39
61014;BME280;46899;47.542;19.082;2022-07-29T10:48:05;100294.59;;;36.48;23.04
61014;BME280;46899;47.542;19.082;2022-07-29T10:51:09;100297.50;;;36.47;23.08
61014;BME280;46899;47.542;19.082;2022-07-29T10:54:13;100290.28;;;37.01;22.11
61014;BME280;46899;47.542;19.082;2022-07-29T11:00:26;100291.84;;;37.27;21.66
61014;BME280;46899;47.542;19.082;2022-07-29T11:03:45;100284.31;;;36.25;23.01
61014;BME280;46899;47.542;19.082;2022-07-29T11:16:59;100279.03;;;34.66;25.44
61014;BME280;46899;47.542;19.082;2022-07-29T11:23:29;100266.34;;;34.60;25.04
61014;BME280;46899;47.542;19.082;2022-07-29T11:26:35;100260.94;;;35.31;24.19
61014;BME280;46899;47.542;19.082;2022-07-29T11:32:44;100257.53;;;35.04;24.11
61014;BME280;46899;47.542;19.082;2022-07-29T11:36:24;100245.38;;;35.20;24.06
61014;BME280;46899;47.542;19.082;2022-07-29T11:39:26;100240.59;;;35.91;23.71
61014;BME280;46899;47.542;19.082;2022-07-29T11:42:39;100243.22;;;35.35;23.79
61014;BME280;46899;47.542;19.082;2022-07-29T11:45:46;100236.63;;;35.18;24.01
61014;BME280;46899;47.542;19.082;2022-07-29T11:48:49;100233.22;;;35.73;23.37
61014;BME280;46899;47.542;19.082;2022-07-29T11:51:57;100236.13;;;36.03;23.51
61014;BME280;46899;47.542;19.082;2022-07-29T11:55:01;100234.31;;;36.21;22.48
61014;BME280;46899;47.542;19.082;2022-07-29T11:58:11;100227.84;;;35.98;22.63
61014;BME280;46899;47.542;19.082;2022-07-29T12:01:16;100235.75;;;36.85;22.02
61014;BME280;46899;47.542;19.082;2022-07-29T12:04:19;100236.97;;;37.37;22.02
61014;BME280;46899;47.542;19.082;2022-07-29T12:07:31;100236.87;;;36.59;22.21
61014;BME280;46899;47.542;19.082;2022-07-29T12:10:36;100227.50;;;36.98;22.42
61014;BME280;46899;47.542;19.082;2022-07-29T12:13:39;100222.06;;;37.28;21.21
61014;BME280;46899;47.542;19.082;2022-07-29T12:16:42;100221.09;;;37.22;21.39
61014;BME280;46899;47.542;19.082;2022-07-29T12:19:45;100206.69;;;36.92;21.55
61014;BME280;46899;47.542;19.082;2022-07-29T12:22:47;100208.47;;;37.16;21.21
61014;BME280;46899;47.542;19.082;2022-07-29T12:25:51;100206.56;;;37.17;20.94
61014;BME280;46899;47.542;19.082;2022-07-29T12:28:55;100204.66;;;37.17;21.11
61014;BME280;46899;47.542;19.082;2022-07-29T12:31:57;100200.03;;;36.88;21.26
61014;BME280;46899;47.542;19.082;2022-07-29T12:35:04;100191.28;;;36.86;21.67
61014;BME280;46899;47.542;19.082;2022-07-29T12:38:09;100188.25;;;37.12;21.12
61014;BME280;46899;47.542;19.082;2022-07-29T12:41:11;100186.75;;;37.16;20.96
61014;BME280;46899;47.542;19.082;2022-07-29T12:44:15;100174.84;;;36.63;21.67
61014;BME280;46899;47.542;19.082;2022-07-29T12:47:18;100171.41;;;36.56;21.29
61014;BME280;46899;47.542;19.082;2022-07-29T12:50:21;100178.56;;;36.50;21.87
61014;BME280;46899;47.542;19.082;2022-07-29T12:53:28;100172.19;;;36.38;21.64
61014;BME280;46899;47.542;19.082;2022-07-29T12:56:30;100166.09;;;36.43;21.66
61014;BME280;46899;47.542;19.082;2022-07-29T13:00:10;100168.44;;;36.75;21.62
61014;BME280;46899;47.542;19.082;2022-07-29T13:03:12;100162.34;;;36.44;21.86
61014;BME280;46899;47.542;19.082;2022-07-29T13:09:45;100154.84;;;36.46;21.14
61014;BME280;46899;47.542;19.082;2022-07-29T13:13:00;100150.00;;;36.29;21.51
61014;BME280;46899;47.542;19.082;2022-07-29T13:16:06;100152.84;;;36.34;21.79
61014;BME280;46899;47.542;19.082;2022-07-29T13:19:10;100144.31;;;36.13;21.65
61014;BME280;46899;47.542;19.082;2022-07-29T13:22:14;100139.78;;;35.57;21.99
61014;BME280;46899;47.542;19.082;2022-07-29T13:25:31;100129.72;;;35.64;22.09
61014;BME280;46899;47.542;19.082;2022-07-29T13:28:34;100135.31;;;35.94;21.73
61014;BME280;46899;47.542;19.082;2022-07-29T13:31:37;100136.84;;;35.84;21.97
61014;BME280;46899;47.542;19.082;2022-07-29T13:34:39;100130.50;;;35.96;21.48
61014;BME280;46899;47.542;19.082;2022-07-29T13:37:43;100129.09;;;36.12;22.04
61014;BME280;46899;47.542;19.082;2022-07-29T13:40:45;100130.31;;;36.16;21.91
61014;BME280;46899;47.542;19.082;2022-07-29T13:43:48;100123.44;;;36.13;21.45
61014;BME280;46899;47.542;19.082;2022-07-29T13:46:51;100121.50;;;36.02;21.87
61014;BME280;46899;47.542;19.082;2022-07-29T13:49:54;100108.88;;;35.90;22.05
61014;BME280;46899;47.542;19.082;2022-07-29T13:52:59;100117.22;;;36.13;22.08
61014;BME280;46899;47.542;19.082;2022-07-29T13:56:02;100106.38;;;35.39;22.92
61014;BME280;46899;47.542;19.082;2022-07-29T13:59:07;100113.06;;;35.05;23.55
61014;BME280;46899;47.542;19.082;2022-07-29T14:02:10;100102.28;;;34.54;23.88
61014;BME280;46899;47.542;19.082;2022-07-29T14:05:17;100100.44;;;34.92;23.66
61014;BME280;46899;47.542;19.082;2022-07-29T14:08:19;100102.22;;;35.12;23.31
61014;BME280;46899;47.542;19.082;2022-07-29T14:11:22;100104.94;;;35.05;23.50
61014;BME280;46899;47.542;19.082;2022-07-29T14:14:24;100093.94;;;34.93;23.29
61014;BME280;46899;47.542;19.082;2022-07-29T14:17:27;100089.13;;;34.64;24.08
61014;BME280;46899;47.542;19.082;2022-07-29T14:20:31;100088.34;;;34.44;23.94
61014;BME280;46899;47.542;19.082;2022-07-29T14:23:34;100086.12;;;34.28;24.20
61014;BME280;46899;47.542;19.082;2022-07-29T14:26:37;100083.41;;;34.34;23.69
61014;BME280;46899;47.542;19.082;2022-07-29T14:29:40;100075.94;;;34.30;23.79
61014;BME280;46899;47.542;19.082;2022-07-29T14:32:42;100075.03;;;34.49;23.86
61014;BME280;46899;47.542;19.082;2022-07-29T14:35:45;100075.34;;;34.72;23.94
61014;BME280;46899;47.542;19.082;2022-07-29T14:38:47;100071.50;;;34.93;23.64
61014;BME280;46899;47.542;19.082;2022-07-29T14:41:50;100063.50;;;35.11;24.01
61014;BME280;46899;47.542;19.082;2022-07-29T14:44:53;100067.00;;;34.80;23.83
61014;BME280;46899;47.542;19.082;2022-07-29T14:47:56;100064.75;;;35.09;23.62
61014;BME280;46899;47.542;19.082;2022-07-29T14:50:59;100060.47;;;35.26;23.13
61014;BME280;46899;47.542;19.082;2022-07-29T14:54:06;100062.78;;;35.22;23.12
61014;BME280;46899;47.542;19.082;2022-07-29T14:57:08;100060.22;;;35.02;23.58
61014;BME280;46899;47.542;19.082;2022-07-29T15:00:12;100049.41;;;34.96;23.39
61014;BME280;46899;47.542;19.082;2022-07-29T15:03:14;100040.75;;;34.87;23.96
61014;BME280;46899;47.542;19.082;2022-07-29T15:06:26;100026.00;;;34.83;23.34
61014;BME280;46899;47.542;19.082;2022-07-29T15:09:28;100029.25;;;34.61;23.34
61014;BME280;46899;47.542;19.082;2022-07-29T15:12:31;100026.06;;;34.70;23.51
61014;BME280;46899;47.542;19.082;2022-07-29T15:15:33;100031.78;;;34.49;24.26
61014;BME280;46899;47.542;19.082;2022-07-29T15:18:36;100034.38;;;34.31;23.85
61014;BME280;46899;47.542;19.082;2022-07-29T15:21:40;100035.41;;;34.30;24.30
61014;BME280;46899;47.542;19.082;2022-07-29T15:24:50;100028.91;;;34.37;24.18
61014;BME280;46899;47.542;19.082;2022-07-29T15:27:52;100024.59;;;34.30;24.03
61014;BME280;46899;47.542;19.082;2022-07-29T15:31:01;100019.81;;;34.25;24.06
61014;BME280;46899;47.542;19.082;2022-07-29T15:34:04;100020.25;;;34.22;24.13
61014;BME280;46899;47.542;19.082;2022-07-29T15:37:07;100021.56;;;34.07;24.28
61014;BME280;46899;47.542;19.082;2022-07-29T15:40:10;100020.09;;;34.11;24.49
61014;BME280;46899;47.542;19.082;2022-07-29T15:43:13;100013.22;;;34.02;24.26
61014;BME280;46899;47.542;19.082;2022-07-29T15:46:16;100015.78;;;33.84;24.19
61014;BME280;46899;47.542;19.082;2022-07-29T15:49:38;100013.94;;;33.71;24.72
61014;BME280;46899;47.542;19.082;2022-07-29T15:52:50;100013.31;;;33.75;24.78
61014;BME280;46899;47.542;19.082;2022-07-29T15:55:53;100004.59;;;33.73;24.62
61014;BME280;46899;47.542;19.082;2022-07-29T15:58:55;100003.56;;;33.61;24.83
61014;BME280;46899;47.542;19.082;2022-07-29T16:01:58;99999.03;;;33.55;25.06
61014;BME280;46899;47.542;19.082;2022-07-29T16:05:01;99993.03;;;33.53;25.17
61014;BME280;46899;47.542;19.082;2022-07-29T16:08:04;99994.44;;;33.49;25.11
61014;BME280;46899;47.542;19.082;2022-07-29T16:11:06;99991.97;;;33.41;26.03
61014;BME280;46899;47.542;19.082;2022-07-29T16:14:09;99993.84;;;33.34;25.87
61014;BME280;46899;47.542;19.082;2022-07-29T16:17:13;99998.41;;;33.27;26.38
61014;BME280;46899;47.542;19.082;2022-07-29T16:20:16;100002.56;;;33.17;26.20
61014;BME280;46899;47.542;19.082;2022-07-29T16:23:18;99998.81;;;33.24;26.12
61014;BME280;46899;47.542;19.082;2022-07-29T16:26:21;99999.06;;;33.16;26.90
61014;BME280;46899;47.542;19.082;2022-07-29T16:29:24;99999.66;;;33.05;26.55
61014;BME280;46899;47.542;19.082;2022-07-29T16:32:26;99988.06;;;33.11;26.28
61014;BME280;46899;47.542;19.082;2022-07-29T16:35:29;99990.53;;;33.06;26.90
61014;BME280;46899;47.542;19.082;2022-07-29T16:38:41;99988.25;;;33.03;27.40